sensor_id;sensor_type;location;lat;lon;timestamp;pressure;altitude;pressure_sealevel;temperature;humidity
74708;BME280;63360;50.104;8.074;2023-03-01T00:01:54;98168.25;;;-3.10;86.29
74708;BME280;63360;50.104;8.074;2023-03-01T00:04:21;98170.03;;;-3.04;86.66
74708;BME280;63360;50.104;8.074;2023-03-01T00:06:47;98183.56;;;-2.90;87.28
74708;BME280;63360;50.104;8.074;2023-03-01T00:09:14;98178.66;;;-2.92;85.44
74708;BME280;63360;50.104;8.074;2023-03-01T00:11:41;98181.75;;;-3.03;85.65
74708;BME280;63360;50.104;8.074;2023-03-01T00:14:07;98191.34;;;-3.12;85.92
74708;BME280;63360;50.104;8.074;2023-03-01T00:16:37;98187.59;;;-3.16;85.92
74708;BME280;63360;50.104;8.074;2023-03-01T00:19:11;98181.31;;;-3.26;86.14
74708;BME280;63360;50.104;8.074;2023-03-01T00:21:38;98159.56;;;-3.42;86.15
74708;BME280;63360;50.104;8.074;2023-03-01T00:24:05;98174.06;;;-3.29;89.09
74708;BME280;63360;50.104;8.074;2023-03-01T00:26:32;98175.63;;;-3.35;87.87
74708;BME280;63360;50.104;8.074;2023-03-01T00:28:59;98178.94;;;-3.34;88.59
74708;BME280;63360;50.104;8.074;2023-03-01T00:31:28;98167.59;;;-3.38;89.43
74708;BME280;63360;50.104;8.074;2023-03-01T00:33:58;98160.72;;;-3.44;87.62
74708;BME280;63360;50.104;8.074;2023-03-01T00:36:27;98169.75;;;-3.42;89.64
74708;BME280;63360;50.104;8.074;2023-03-01T00:38:54;98158.78;;;-3.42;90.24
74708;BME280;63360;50.104;8.074;2023-03-01T00:41:21;98162.09;;;-3.35;90.65
74708;BME280;63360;50.104;8.074;2023-03-01T00:43:53;98168.56;;;-3.39;89.85
74708;BME280;63360;50.104;8.074;2023-03-01T00:46:22;98160.56;;;-3.36;90.47
74708;BME280;63360;50.104;8.074;2023-03-01T00:48:49;98147.81;;;-3.43;90.26
74708;BME280;63360;50.104;8.074;2023-03-01T00:51:18;98145.44;;;-3.51;88.64
74708;BME280;63360;50.104;8.074;2023-03-01T00:53:46;98164.66;;;-3.42;90.06
74708;BME280;63360;50.104;8.074;2023-03-01T00:56:13;98148.19;;;-3.52;89.27
74708;BME280;63360;50.104;8.074;2023-03-01T00:58:41;98149.97;;;-3.46;90.18
74708;BME280;63360;50.104;8.074;2023-03-01T01:01:14;98133.72;;;-3.52;90.60
74708;BME280;63360;50.104;8.074;2023-03-01T01:03:45;98138.47;;;-3.36;89.66
74708;BME280;63360;50.104;8.074;2023-03-01T01:06:33;98123.34;;;-3.50;89.49
74708;BME280;63360;50.104;8.074;2023-03-01T01:09:01;98140.34;;;-3.51;89.40
74708;BME280;63360;50.104;8.074;2023-03-01T01:11:29;98128.97;;;-3.61;90.21
74708;BME280;63360;50.104;8.074;2023-03-01T01:13:56;98125.44;;;-3.67;89.83
74708;BME280;63360;50.104;8.074;2023-03-01T01:16:25;98119.56;;;-3.74;89.89
74708;BME280;63360;50.104;8.074;2023-03-01T01:18:52;98127.81;;;-3.65;91.94
74708;BME280;63360;50.104;8.074;2023-03-01T01:21:21;98112.50;;;-3.79;92.01
74708;BME280;63360;50.104;8.074;2023-03-01T01:23:49;98109.16;;;-3.86;90.66
74708;BME280;63360;50.104;8.074;2023-03-01T01:26:27;98117.59;;;-3.79;91.97
74708;BME280;63360;50.104;8.074;2023-03-01T01:28:55;98115.84;;;-3.78;91.16
74708;BME280;63360;50.104;8.074;2023-03-01T01:31:23;98127.38;;;-3.76;90.63
74708;BME280;63360;50.104;8.074;2023-03-01T01:33:51;98116.00;;;-3.86;90.69
74708;BME280;63360;50.104;8.074;2023-03-01T01:36:18;98107.97;;;-3.83;90.72
74708;BME280;63360;50.104;8.074;2023-03-01T01:38:44;98104.69;;;-3.84;92.59
74708;BME280;63360;50.104;8.074;2023-03-01T01:41:12;98108.19;;;-3.85;93.01
74708;BME280;63360;50.104;8.074;2023-03-01T01:43:42;98088.00;;;-3.93;92.59
74708;BME280;63360;50.104;8.074;2023-03-01T01:46:24;98097.06;;;-3.84;92.14
74708;BME280;63360;50.104;8.074;2023-03-01T01:49:00;98083.56;;;-3.78;93.01
74708;BME280;63360;50.104;8.074;2023-03-01T01:51:32;98078.66;;;-3.86;92.77
74708;BME280;63360;50.104;8.074;2023-03-01T01:54:19;98085.13;;;-3.77;92.84
74708;BME280;63360;50.104;8.074;2023-03-01T01:56:52;98071.25;;;-3.81;93.35
74708;BME280;63360;50.104;8.074;2023-03-01T01:59:21;98090.81;;;-3.75;92.66
74708;BME280;63360;50.104;8.074;2023-03-01T02:01:52;98090.25;;;-3.70;92.82
74708;BME280;63360;50.104;8.074;2023-03-01T02:04:19;98084.56;;;-3.79;92.55
74708;BME280;63360;50.104;8.074;2023-03-01T02:06:55;98091.84;;;-3.62;91.29
74708;BME280;63360;50.104;8.074;2023-03-01T02:09:24;98081.22;;;-3.79;91.58
74708;BME280;63360;50.104;8.074;2023-03-01T02:11:51;98084.13;;;-3.82;92.64
74708;BME280;63360;50.104;8.074;2023-03-01T02:14:17;98089.09;;;-3.61;91.83
74708;BME280;63360;50.104;8.074;2023-03-01T02:16:44;98076.72;;;-3.77;91.88
74708;BME280;63360;50.104;8.074;2023-03-01T02:25:06;98084.59;;;-3.65;92.40
74708;BME280;63360;50.104;8.074;2023-03-01T02:27:46;98084.59;;;-3.65;92.33
74708;BME280;63360;50.104;8.074;2023-03-01T02:30:15;98066.00;;;-3.73;92.74
74708;BME280;63360;50.104;8.074;2023-03-01T02:32:42;98074.59;;;-3.74;93.03
74708;BME280;63360;50.104;8.074;2023-03-01T02:35:13;98093.78;;;-3.58;92.93
74708;BME280;63360;50.104;8.074;2023-03-01T02:37:41;98084.59;;;-3.65;92.80
74708;BME280;63360;50.104;8.074;2023-03-01T02:40:12;98076.16;;;-3.66;94.56
74708;BME280;63360;50.104;8.074;2023-03-01T02:42:51;98079.53;;;-3.52;94.76
74708;BME280;63360;50.104;8.074;2023-03-01T02:45:20;98074.44;;;-3.52;94.13
74708;BME280;63360;50.104;8.074;2023-03-01T02:47:46;98060.94;;;-3.59;92.82
74708;BME280;63360;50.104;8.074;2023-03-01T02:50:22;98076.03;;;-3.45;92.42
74708;BME280;63360;50.104;8.074;2023-03-01T02:53:05;98072.88;;;-3.40;93.11
74708;BME280;63360;50.104;8.074;2023-03-01T02:55:34;98067.03;;;-3.41;92.33
74708;BME280;63360;50.104;8.074;2023-03-01T02:58:02;98065.28;;;-3.34;92.56
74708;BME280;63360;50.104;8.074;2023-03-01T03:00:34;98057.66;;;-3.34;91.74
74708;BME280;63360;50.104;8.074;2023-03-01T03:03:01;98055.09;;;-3.34;91.29
74708;BME280;63360;50.104;8.074;2023-03-01T03:05:30;98053.13;;;-3.32;92.07
74708;BME280;63360;50.104;8.074;2023-03-01T03:07:58;98028.88;;;-3.34;92.03
74708;BME280;63360;50.104;8.074;2023-03-01T03:10:31;98028.88;;;-3.34;91.58
74708;BME280;63360;50.104;8.074;2023-03-01T03:13:09;98026.16;;;-3.26;92.68
74708;BME280;63360;50.104;8.074;2023-03-01T03:15:36;98015.97;;;-3.39;91.21
74708;BME280;63360;50.104;8.074;2023-03-01T03:18:07;98027.31;;;-3.29;90.69
74708;BME280;63360;50.104;8.074;2023-03-01T03:20:34;98026.16;;;-3.26;90.11
74708;BME280;63360;50.104;8.074;2023-03-01T03:23:00;98015.38;;;-3.41;91.36
74708;BME280;63360;50.104;8.074;2023-03-01T03:25:28;98030.66;;;-3.41;91.30
74708;BME280;63360;50.104;8.074;2023-03-01T03:27:56;98022.03;;;-3.40;91.40
74708;BME280;63360;50.104;8.074;2023-03-01T03:30:29;98024.75;;;-3.35;90.74
74708;BME280;63360;50.104;8.074;2023-03-01T03:32:56;98025.53;;;-3.48;90.85
74708;BME280;63360;50.104;8.074;2023-03-01T03:35:29;98023.38;;;-3.51;92.40
74708;BME280;63360;50.104;8.074;2023-03-01T03:38:00;98015.00;;;-3.51;91.96
74708;BME280;63360;50.104;8.074;2023-03-01T03:40:39;98019.88;;;-3.43;91.76
74708;BME280;63360;50.104;8.074;2023-03-01T03:43:10;98008.91;;;-3.50;91.58
74708;BME280;63360;50.104;8.074;2023-03-01T03:45:36;98004.63;;;-3.50;92.82
74708;BME280;63360;50.104;8.074;2023-03-01T03:48:05;97995.78;;;-3.54;91.60
74708;BME280;63360;50.104;8.074;2023-03-01T03:50:32;98006.56;;;-3.45;92.09
74708;BME280;63360;50.104;8.074;2023-03-01T03:53:04;97994.84;;;-3.53;91.92
74708;BME280;63360;50.104;8.074;2023-03-01T03:55:31;98000.50;;;-3.44;91.83
74708;BME280;63360;50.104;8.074;2023-03-01T03:58:01;97972.53;;;-3.57;91.83
74708;BME280;63360;50.104;8.074;2023-03-01T04:00:35;97978.00;;;-3.54;91.16
74708;BME280;63360;50.104;8.074;2023-03-01T04:03:02;97979.97;;;-3.49;91.91
74708;BME280;63360;50.104;8.074;2023-03-01T04:05:28;97977.81;;;-3.46;93.02
74708;BME280;63360;50.104;8.074;2023-03-01T04:07:55;97966.25;;;-3.48;92.95
74708;BME280;63360;50.104;8.074;2023-03-01T04:10:37;97970.38;;;-3.47;92.33
74708;BME280;63360;50.104;8.074;2023-03-01T04:13:05;97980.75;;;-3.42;91.16
74708;BME280;63360;50.104;8.074;2023-03-01T04:15:33;97987.41;;;-3.48;91.70
74708;BME280;63360;50.104;8.074;2023-03-01T04:17:59;97990.91;;;-3.55;92.05
74708;BME280;63360;50.104;8.074;2023-03-01T04:20:29;97990.13;;;-3.56;92.67
74708;BME280;63360;50.104;8.074;2023-03-01T04:23:11;97983.69;;;-3.52;93.57
74708;BME280;63360;50.104;8.074;2023-03-01T04:25:42;97985.03;;;-3.56;92.63
74708;BME280;63360;50.104;8.074;2023-03-01T04:28:09;97997.78;;;-3.49;91.43
74708;BME280;63360;50.104;8.074;2023-03-01T04:30:37;97988.97;;;-3.60;91.04
74708;BME280;63360;50.104;8.074;2023-03-01T04:33:08;97995.81;;;-3.47;91.23
74708;BME280;63360;50.104;8.074;2023-03-01T04:35:36;97992.50;;;-3.54;92.37
74708;BME280;63360;50.104;8.074;2023-03-01T04:38:04;97998.53;;;-3.55;92.85
74708;BME280;63360;50.104;8.074;2023-03-01T04:40:31;97986.22;;;-3.65;92.41
74708;BME280;63360;50.104;8.074;2023-03-01T04:42:57;97991.31;;;-3.65;91.71
74708;BME280;63360;50.104;8.074;2023-03-01T04:45:24;97994.63;;;-3.58;91.32
74708;BME280;63360;50.104;8.074;2023-03-01T04:47:51;97985.44;;;-3.65;91.54
74708;BME280;63360;50.104;8.074;2023-03-01T04:50:20;97994.41;;;-3.70;92.88
74708;BME280;63360;50.104;8.074;2023-03-01T04:52:47;97996.19;;;-3.63;93.71
74708;BME280;63360;50.104;8.074;2023-03-01T04:55:14;97978.19;;;-3.75;93.20
74708;BME280;63360;50.104;8.074;2023-03-01T04:57:40;97973.09;;;-3.75;93.30
74708;BME280;63360;50.104;8.074;2023-03-01T05:00:11;98004.78;;;-3.64;92.33
74708;BME280;63360;50.104;8.074;2023-03-01T05:02:56;97986.03;;;-3.70;92.57
74708;BME280;63360;50.104;8.074;2023-03-01T05:07:55;97984.44;;;-3.71;93.86
74708;BME280;63360;50.104;8.074;2023-03-01T05:10:22;97983.09;;;-3.60;93.63
74708;BME280;63360;50.104;8.074;2023-03-01T05:12:49;97982.50;;;-3.76;92.43
74708;BME280;63360;50.104;8.074;2023-03-01T05:15:15;97976.03;;;-3.78;93.90
74708;BME280;63360;50.104;8.074;2023-03-01T05:17:42;97974.09;;;-3.76;93.05
74708;BME280;63360;50.104;8.074;2023-03-01T05:20:09;97980.94;;;-3.70;93.77
74708;BME280;63360;50.104;8.074;2023-03-01T05:22:36;97970.97;;;-3.78;93.22
74708;BME280;63360;50.104;8.074;2023-03-01T05:25:04;97978.97;;;-3.68;94.68
74708;BME280;63360;50.104;8.074;2023-03-01T05:27:30;97966.44;;;-3.70;92.94
74708;BME280;63360;50.104;8.074;2023-03-01T05:29:57;97979.97;;;-3.56;92.65
74708;BME280;63360;50.104;8.074;2023-03-01T05:32:23;97973.91;;;-3.55;94.08
74708;BME280;63360;50.104;8.074;2023-03-01T05:34:50;97972.13;;;-3.48;94.57
74708;BME280;63360;50.104;8.074;2023-03-01T05:37:18;97958.25;;;-3.52;93.74
74708;BME280;63360;50.104;8.074;2023-03-01T05:39:45;97957.28;;;-3.44;92.89
74708;BME280;63360;50.104;8.074;2023-03-01T05:42:12;97953.56;;;-3.48;91.73
74708;BME280;63360;50.104;8.074;2023-03-01T05:44:38;97957.28;;;-3.44;91.26
74708;BME280;63360;50.104;8.074;2023-03-01T05:47:04;97940.84;;;-3.55;90.39
74708;BME280;63360;50.104;8.074;2023-03-01T05:49:31;97970.38;;;-3.34;90.02
74708;BME280;63360;50.104;8.074;2023-03-01T05:51:58;97958.84;;;-3.43;90.61
74708;BME280;63360;50.104;8.074;2023-03-01T05:54:24;97972.16;;;-3.41;90.65
74708;BME280;63360;50.104;8.074;2023-03-01T05:56:51;97955.09;;;-3.54;90.47
74708;BME280;63360;50.104;8.074;2023-03-01T05:59:17;97969.41;;;-3.40;92.42
74708;BME280;63360;50.104;8.074;2023-03-01T06:01:43;97962.94;;;-3.42;91.11
74708;BME280;63360;50.104;8.074;2023-03-01T06:04:10;97961.19;;;-3.42;91.86
74708;BME280;63360;50.104;8.074;2023-03-01T06:06:37;97957.47;;;-3.39;92.77
74708;BME280;63360;50.104;8.074;2023-03-01T06:09:04;97961.00;;;-3.34;91.15
74708;BME280;63360;50.104;8.074;2023-03-01T06:11:34;97968.22;;;-3.31;92.57
74708;BME280;63360;50.104;8.074;2023-03-01T06:14:01;97956.88;;;-3.35;93.08
74708;BME280;63360;50.104;8.074;2023-03-01T06:16:27;97956.47;;;-3.32;91.74
74708;BME280;63360;50.104;8.074;2023-03-01T06:18:54;97973.91;;;-3.22;90.84
74708;BME280;63360;50.104;8.074;2023-03-01T06:21:21;97965.09;;;-3.26;90.48
74708;BME280;63360;50.104;8.074;2023-03-01T06:23:47;97954.91;;;-3.20;90.40
74708;BME280;63360;50.104;8.074;2023-03-01T06:26:14;97959.59;;;-3.23;90.47
74708;BME280;63360;50.104;8.074;2023-03-01T06:28:40;97973.09;;;-3.16;90.63
74708;BME280;63360;50.104;8.074;2023-03-01T06:31:06;97961.38;;;-3.24;91.07
74708;BME280;63360;50.104;8.074;2023-03-01T06:33:35;97964.06;;;-3.06;92.46
74708;BME280;63360;50.104;8.074;2023-03-01T06:36:02;97962.31;;;-3.05;91.43
74708;BME280;63360;50.104;8.074;2023-03-01T06:38:29;97962.88;;;-2.90;89.75
74708;BME280;63360;50.104;8.074;2023-03-01T06:40:55;97967.00;;;-2.89;89.16
74708;BME280;63360;50.104;8.074;2023-03-01T06:43:23;97963.25;;;-2.86;90.14
74708;BME280;63360;50.104;8.074;2023-03-01T06:45:49;97940.56;;;-2.94;90.42
74708;BME280;63360;50.104;8.074;2023-03-01T06:48:16;97939.78;;;-2.88;89.10
74708;BME280;63360;50.104;8.074;2023-03-01T06:50:43;97940.16;;;-2.85;89.28
74708;BME280;63360;50.104;8.074;2023-03-01T06:53:09;97941.53;;;-2.82;89.34
74708;BME280;63360;50.104;8.074;2023-03-01T06:55:36;97948.72;;;-2.73;88.56
74708;BME280;63360;50.104;8.074;2023-03-01T06:58:02;97936.22;;;-2.74;88.03
74708;BME280;63360;50.104;8.074;2023-03-01T07:00:29;97942.63;;;-2.59;88.56
74708;BME280;63360;50.104;8.074;2023-03-01T07:02:59;97944.31;;;-2.46;85.73
74708;BME280;63360;50.104;8.074;2023-03-01T07:05:25;97947.88;;;-2.54;86.20
74708;BME280;63360;50.104;8.074;2023-03-01T07:07:53;97939.44;;;-2.48;87.42
74708;BME280;63360;50.104;8.074;2023-03-01T07:10:21;97940.38;;;-2.42;86.98
74708;BME280;63360;50.104;8.074;2023-03-01T07:12:47;97939.53;;;-2.29;85.87
74708;BME280;63360;50.104;8.074;2023-03-01T07:15:14;97939.72;;;-2.24;86.05
74708;BME280;63360;50.104;8.074;2023-03-01T07:17:41;97952.16;;;-2.10;84.28
74708;BME280;63360;50.104;8.074;2023-03-01T07:20:08;97942.50;;;-2.01;82.54
74708;BME280;63360;50.104;8.074;2023-03-01T07:22:35;97945.63;;;-1.99;85.01
74708;BME280;63360;50.104;8.074;2023-03-01T07:25:01;97925.25;;;-1.99;82.48
74708;BME280;63360;50.104;8.074;2023-03-01T07:27:28;97947.84;;;-1.78;82.26
74708;BME280;63360;50.104;8.074;2023-03-01T07:29:54;97949.63;;;-1.78;82.80
74708;BME280;63360;50.104;8.074;2023-03-01T07:32:20;97955.16;;;-1.57;84.01
74708;BME280;63360;50.104;8.074;2023-03-01T07:34:47;97942.75;;;-1.53;82.46
74708;BME280;63360;50.104;8.074;2023-03-01T07:37:13;97949.09;;;-1.38;81.34
74708;BME280;63360;50.104;8.074;2023-03-01T07:39:40;97942.75;;;-1.29;81.88
74708;BME280;63360;50.104;8.074;2023-03-01T07:42:06;97941.56;;;-1.08;81.64
74708;BME280;63360;50.104;8.074;2023-03-01T07:44:33;97938.88;;;-1.13;79.98
74708;BME280;63360;50.104;8.074;2023-03-01T07:47:00;97921.34;;;-1.28;80.09
74708;BME280;63360;50.104;8.074;2023-03-01T07:49:27;97932.94;;;-1.07;80.29
74708;BME280;63360;50.104;8.074;2023-03-01T07:51:53;97932.00;;;-1.12;80.61
74708;BME280;63360;50.104;8.074;2023-03-01T07:54:19;97937.91;;;-1.12;80.17
74708;BME280;63360;50.104;8.074;2023-03-01T07:56:46;97935.56;;;-0.95;79.33
74708;BME280;63360;50.104;8.074;2023-03-01T07:59:12;97937.50;;;-0.91;78.81
74708;BME280;63360;50.104;8.074;2023-03-01T08:01:39;97928.63;;;-0.88;78.02
74708;BME280;63360;50.104;8.074;2023-03-01T08:04:07;97933.59;;;-0.75;79.78
74708;BME280;63360;50.104;8.074;2023-03-01T08:06:34;97935.63;;;-0.66;78.92
74708;BME280;63360;50.104;8.074;2023-03-01T08:09:02;97928.03;;;-0.54;76.80
74708;BME280;63360;50.104;8.074;2023-03-01T08:11:28;97924.13;;;-0.56;77.34
74708;BME280;63360;50.104;8.074;2023-03-01T08:13:55;97932.13;;;-0.53;76.19
74708;BME280;63360;50.104;8.074;2023-03-01T08:16:21;97914.47;;;-0.54;76.73
74708;BME280;63360;50.104;8.074;2023-03-01T08:18:48;97923.59;;;-0.47;76.65
74708;BME280;63360;50.104;8.074;2023-03-01T08:21:16;97926.91;;;-0.28;76.26
74708;BME280;63360;50.104;8.074;2023-03-01T08:23:43;97935.94;;;0.16;74.59
74708;BME280;63360;50.104;8.074;2023-03-01T08:26:28;97937.41;;;0.35;74.12
74708;BME280;63360;50.104;8.074;2023-03-01T08:28:55;97937.56;;;0.51;74.21
74708;BME280;63360;50.104;8.074;2023-03-01T08:33:50;97924.53;;;0.65;70.97
74708;BME280;63360;50.104;8.074;2023-03-01T08:36:27;97927.53;;;0.96;72.06
74708;BME280;63360;50.104;8.074;2023-03-01T08:38:54;97918.69;;;1.27;69.29
74708;BME280;63360;50.104;8.074;2023-03-01T08:41:21;97912.22;;;1.25;69.69
74708;BME280;63360;50.104;8.074;2023-03-01T08:43:48;97906.91;;;1.54;68.15
74708;BME280;63360;50.104;8.074;2023-03-01T08:46:14;97917.00;;;1.89;67.54
74708;BME280;63360;50.104;8.074;2023-03-01T08:48:41;97911.50;;;1.97;66.79
74708;BME280;63360;50.104;8.074;2023-03-01T08:51:14;97900.28;;;2.31;64.59
74708;BME280;63360;50.104;8.074;2023-03-01T08:53:41;97894.97;;;2.38;63.13
74708;BME280;63360;50.104;8.074;2023-03-01T08:56:09;97915.19;;;2.51;63.95
74708;BME280;63360;50.104;8.074;2023-03-01T08:58:36;97901.19;;;2.42;66.42
74708;BME280;63360;50.104;8.074;2023-03-01T09:01:15;97895.28;;;2.25;64.03
74708;BME280;63360;50.104;8.074;2023-03-01T09:03:42;97902.00;;;1.98;65.04
74708;BME280;63360;50.104;8.074;2023-03-01T09:06:09;97906.69;;;2.01;65.06
74708;BME280;63360;50.104;8.074;2023-03-01T09:08:38;97892.38;;;1.88;67.45
74708;BME280;63360;50.104;8.074;2023-03-01T09:11:07;97893.19;;;1.77;67.87
74708;BME280;63360;50.104;8.074;2023-03-01T09:13:34;97878.28;;;1.74;69.15
74708;BME280;63360;50.104;8.074;2023-03-01T09:16:02;97888.19;;;1.70;68.95
74708;BME280;63360;50.104;8.074;2023-03-01T09:18:30;97885.75;;;1.47;69.30
74708;BME280;63360;50.104;8.074;2023-03-01T09:21:14;97886.75;;;1.46;69.79
74708;BME280;63360;50.104;8.074;2023-03-01T09:23:43;97899.06;;;1.61;69.76
74708;BME280;63360;50.104;8.074;2023-03-01T09:26:21;97886.66;;;1.69;68.94
74708;BME280;63360;50.104;8.074;2023-03-01T09:28:49;97884.59;;;1.55;69.00
74708;BME280;63360;50.104;8.074;2023-03-01T09:31:18;97893.81;;;1.67;68.58
74708;BME280;63360;50.104;8.074;2023-03-01T09:33:49;97883.06;;;1.54;69.63
74708;BME280;63360;50.104;8.074;2023-03-01T09:36:18;97889.97;;;1.53;70.52
74708;BME280;63360;50.104;8.074;2023-03-01T09:38:45;97895.09;;;1.53;69.89
74708;BME280;63360;50.104;8.074;2023-03-01T09:43:53;97881.63;;;1.46;69.48
74708;BME280;63360;50.104;8.074;2023-03-01T09:46:23;97886.25;;;1.61;69.22
74708;BME280;63360;50.104;8.074;2023-03-01T09:49:00;97875.81;;;1.51;69.97
74708;BME280;63360;50.104;8.074;2023-03-01T09:51:33;97880.53;;;1.42;70.24
74708;BME280;63360;50.104;8.074;2023-03-01T09:54:04;97867.25;;;1.45;69.25
74708;BME280;63360;50.104;8.074;2023-03-01T09:57:11;97865.78;;;1.49;69.29
74708;BME280;63360;50.104;8.074;2023-03-01T10:05:14;97867.25;;;1.90;68.47
74708;BME280;63360;50.104;8.074;2023-03-01T10:10:33;97854.06;;;1.98;65.42
74708;BME280;63360;50.104;8.074;2023-03-01T10:13:15;97849.00;;;2.03;65.34
74708;BME280;63360;50.104;8.074;2023-03-01T10:15:47;97854.91;;;2.04;65.88
74708;BME280;63360;50.104;8.074;2023-03-01T10:18:19;97856.78;;;2.08;64.45
74708;BME280;63360;50.104;8.074;2023-03-01T10:21:01;97849.78;;;2.04;65.72
74708;BME280;63360;50.104;8.074;2023-03-01T10:23:31;97846.66;;;2.18;65.26
74708;BME280;63360;50.104;8.074;2023-03-01T10:29:06;97849.22;;;2.35;64.75
74708;BME280;63360;50.104;8.074;2023-03-01T10:31:40;97849.06;;;2.58;63.95
74708;BME280;63360;50.104;8.074;2023-03-01T10:34:30;97849.34;;;2.62;61.53
74708;BME280;63360;50.104;8.074;2023-03-01T10:36:59;97830.84;;;2.43;62.27
74708;BME280;63360;50.104;8.074;2023-03-01T10:39:27;97826.19;;;2.40;62.19
74708;BME280;63360;50.104;8.074;2023-03-01T10:41:57;97835.59;;;2.51;62.65
74708;BME280;63360;50.104;8.074;2023-03-01T10:47:19;97827.66;;;2.53;62.30
74708;BME280;63360;50.104;8.074;2023-03-01T10:49:58;97832.28;;;2.56;62.78
74708;BME280;63360;50.104;8.074;2023-03-01T10:52:40;97831.59;;;2.60;62.25
74708;BME280;63360;50.104;8.074;2023-03-01T10:57:43;97807.13;;;2.53;63.42
74708;BME280;63360;50.104;8.074;2023-03-01T11:00:22;97804.06;;;2.56;63.58
74708;BME280;63360;50.104;8.074;2023-03-01T11:05:25;97800.91;;;2.70;62.98
74708;BME280;63360;50.104;8.074;2023-03-01T11:07:56;97797.63;;;2.75;61.82
74708;BME280;63360;50.104;8.074;2023-03-01T11:10:25;97790.84;;;2.90;61.41
74708;BME280;63360;50.104;8.074;2023-03-01T11:12:53;97799.19;;;2.97;61.52
74708;BME280;63360;50.104;8.074;2023-03-01T11:15:23;97789.44;;;2.99;60.91
74708;BME280;63360;50.104;8.074;2023-03-01T11:17:50;97806.31;;;3.17;60.78
74708;BME280;63360;50.104;8.074;2023-03-01T11:22:59;97801.66;;;3.14;60.89
74708;BME280;63360;50.104;8.074;2023-03-01T11:25:34;97806.63;;;3.21;60.24
74708;BME280;63360;50.104;8.074;2023-03-01T11:28:04;97791.63;;;3.13;60.71
74708;BME280;63360;50.104;8.074;2023-03-01T11:30:39;97803.13;;;3.32;60.83
74708;BME280;63360;50.104;8.074;2023-03-01T11:35:35;97787.53;;;3.43;60.85
74708;BME280;63360;50.104;8.074;2023-03-01T11:38:16;97779.94;;;3.53;60.49
74708;BME280;63360;50.104;8.074;2023-03-01T11:40:50;97763.31;;;3.66;59.70
74708;BME280;63360;50.104;8.074;2023-03-01T12:01:16;97766.16;;;4.01;54.22
74708;BME280;63360;50.104;8.074;2023-03-01T12:06:28;97747.19;;;4.12;56.40
74708;BME280;63360;50.104;8.074;2023-03-01T12:09:23;97745.69;;;4.21;54.92
74708;BME280;63360;50.104;8.074;2023-03-01T12:12:26;97735.91;;;4.28;54.87
74708;BME280;63360;50.104;8.074;2023-03-01T12:20:37;97730.50;;;4.20;57.04
74708;BME280;63360;50.104;8.074;2023-03-01T12:28:48;97726.09;;;4.20;56.21
74708;BME280;63360;50.104;8.074;2023-03-01T12:36:58;97711.19;;;4.22;55.30
74708;BME280;63360;50.104;8.074;2023-03-01T12:42:29;97701.94;;;4.26;53.94
74708;BME280;63360;50.104;8.074;2023-03-01T12:47:58;97692.56;;;4.10;54.81
74708;BME280;63360;50.104;8.074;2023-03-01T12:50:49;97681.31;;;4.26;51.49
74708;BME280;63360;50.104;8.074;2023-03-01T12:53:32;97676.13;;;4.16;51.45
74708;BME280;63360;50.104;8.074;2023-03-01T12:56:05;97664.56;;;4.19;52.01
74708;BME280;63360;50.104;8.074;2023-03-01T13:02:03;97681.09;;;4.28;52.59
74708;BME280;63360;50.104;8.074;2023-03-01T13:07:06;97657.38;;;4.26;52.21
74708;BME280;63360;50.104;8.074;2023-03-01T13:09:50;97665.09;;;4.26;50.54
74708;BME280;63360;50.104;8.074;2023-03-01T13:15:32;97649.09;;;4.14;51.83
74708;BME280;63360;50.104;8.074;2023-03-01T13:20:34;97640.84;;;4.07;53.95
74708;BME280;63360;50.104;8.074;2023-03-01T13:31:01;97653.25;;;4.25;55.72
74708;BME280;63360;50.104;8.074;2023-03-01T13:35:58;97634.66;;;4.13;54.41
74708;BME280;63360;50.104;8.074;2023-03-01T13:41:09;97635.25;;;4.25;54.26
74708;BME280;63360;50.104;8.074;2023-03-01T13:43:38;97632.66;;;4.20;55.56
74708;BME280;63360;50.104;8.074;2023-03-01T13:46:21;97634.16;;;4.16;56.11
74708;BME280;63360;50.104;8.074;2023-03-01T13:48:51;97615.38;;;4.20;54.18
74708;BME280;63360;50.104;8.074;2023-03-01T13:51:23;97624.44;;;4.33;53.33
74708;BME280;63360;50.104;8.074;2023-03-01T13:53:52;97611.28;;;4.24;54.51
74708;BME280;63360;50.104;8.074;2023-03-01T13:56:28;97628.63;;;4.44;53.67
74708;BME280;63360;50.104;8.074;2023-03-01T13:59:04;97618.25;;;4.29;54.15
74708;BME280;63360;50.104;8.074;2023-03-01T14:01:33;97608.72;;;4.29;53.84
74708;BME280;63360;50.104;8.074;2023-03-01T14:04:03;97603.84;;;4.28;55.17
74708;BME280;63360;50.104;8.074;2023-03-01T14:06:32;97605.63;;;4.22;54.66
74708;BME280;63360;50.104;8.074;2023-03-01T14:09:16;97597.88;;;4.17;55.84
74708;BME280;63360;50.104;8.074;2023-03-01T14:11:54;97609.22;;;4.26;56.75
74708;BME280;63360;50.104;8.074;2023-03-01T14:14:58;97619.06;;;4.40;55.97
74708;BME280;63360;50.104;8.074;2023-03-01T14:20:22;97605.94;;;4.41;54.97
74708;BME280;63360;50.104;8.074;2023-03-01T14:22:52;97594.88;;;4.46;55.06
74708;BME280;63360;50.104;8.074;2023-03-01T14:27:55;97597.94;;;4.43;55.71
74708;BME280;63360;50.104;8.074;2023-03-01T14:30:26;97599.72;;;4.32;57.39
74708;BME280;63360;50.104;8.074;2023-03-01T14:32:58;97591.50;;;4.35;56.68
74708;BME280;63360;50.104;8.074;2023-03-01T14:35:31;97595.84;;;4.29;57.19
74708;BME280;63360;50.104;8.074;2023-03-01T14:37:58;97596.88;;;4.28;56.73
74708;BME280;63360;50.104;8.074;2023-03-01T14:40:26;97620.81;;;4.29;57.33
74708;BME280;63360;50.104;8.074;2023-03-01T14:42:55;97607.16;;;4.23;57.13
74708;BME280;63360;50.104;8.074;2023-03-01T14:45:25;97618.72;;;4.16;57.97
74708;BME280;63360;50.104;8.074;2023-03-01T14:47:52;97607.66;;;4.20;56.96
74708;BME280;63360;50.104;8.074;2023-03-01T14:50:29;97601.97;;;4.13;57.30
74708;BME280;63360;50.104;8.074;2023-03-01T14:52:58;97600.94;;;4.09;57.70
74708;BME280;63360;50.104;8.074;2023-03-01T14:55:29;97602.25;;;4.12;57.81
74708;BME280;63360;50.104;8.074;2023-03-01T14:57:58;97609.69;;;4.13;57.97
74708;BME280;63360;50.104;8.074;2023-03-01T15:00:28;97598.34;;;4.04;57.91
74708;BME280;63360;50.104;8.074;2023-03-01T15:03:00;97606.31;;;4.03;58.20
74708;BME280;63360;50.104;8.074;2023-03-01T15:05:33;97610.19;;;4.05;57.62
74708;BME280;63360;50.104;8.074;2023-03-01T15:08:02;97598.31;;;3.99;56.18
74708;BME280;63360;50.104;8.074;2023-03-01T15:10:34;97604.53;;;4.03;56.61
74708;BME280;63360;50.104;8.074;2023-03-01T15:13:20;97594.72;;;3.95;55.72